Nearby METAR Reports

 

KHOB - Hobbs, New Mexico, USA
Distance from station: S 40mi, 65km
Updated: Wed, 24-Apr-2024 9:50am MDT
Clear
Clear
 Wind from varies
Wind: varies 6 mph , 9 km/h
Temperature: 73°F , 23°C
Dew Point: 54°F , 12°C
Humidity: 50%
Barometer: 30.08 inHg , 1018.6 hPa
Clouds: Clear
Visibility: 10 miles , 16 km
2024/04/24 15:50 KHOB 241550Z VRB05KT 10SM CLR 23/12 A3008
KGNC - Seminole, Texas, USA
Distance from station: SE 55mi, 89km
Updated: Wed, 24-Apr-2024 10:15am MDT
Overcast
Overcast
 Wind from E
Wind: E 5 mph , 7 km/h
Temperature: 68°F , 20°C
Dew Point: 59°F , 15°C
Humidity: 73%
Barometer: 30.14 inHg , 1020.7 hPa
Clouds: Overcast
Visibility: 10 miles , 16 km
Cloud details: Overcast 1500 ft
2024/04/24 16:15 KGNC 241615Z AUTO 10004KT 10SM OVC015 20/15 A3014 RMK AO2 T02030147
 
KROW - Roswell, New Mexico, USA
Distance from station: W 67mi, 108km
Updated: Wed, 24-Apr-2024 10:24am MDT
Clear
Clear
 Wind from N
Wind: N 14 mph , 22 km/h
Temperature: 72°F , 22°C
Dew Point: 52°F , 11°C
Humidity: 50%
Barometer: 30.10 inHg , 1019.3 hPa
Clouds: Clear
Visibility: 10 miles , 16 km
2024/04/24 16:24 KROW 241624Z 35012KT 10SM CLR 22/11 A3010 RMK AO2 T02220106
KATS - Artesia, New Mexico, USA
Distance from station: WSW 71mi, 114km
Updated: Wed, 24-Apr-2024 10:15am MDT
Clear
Clear
 Wind from NNW
Wind: NNW 17 mph , 28 km/h, Gust: 24 mph , 39 km/h
Temperature: 72°F , 22°C
Dew Point: 50°F , 10°C
Humidity: 47%
Barometer: 30.12 inHg , 1020 hPa
Clouds: Clear
Visibility: 10 miles , 16 km
2024/04/24 16:15 KATS 241615Z AUTO 34015G21KT 10SM CLR 22/10 A3012 RMK AO2
 
KCVS - Cannon AFB,Clovis, New Mexico, USA
Distance from station: 0 78mi, 125km
Updated: Wed, 24-Apr-2024 9:55am MDT
Mostly cloudy
Mostly cloudy
 Wind from ENE
Wind: ENE 9 mph , 15 km/h
Temperature: 64°F , 18°C
Dew Point: 52°F , 11°C
Humidity: 64%
Barometer: 30.14 inHg , 1020.7 hPa
Clouds: Mostly cloudy
Visibility: 10 miles , 16 km
Cloud details: Mostly cloudy 1900 ft
2024/04/24 15:55 KCVS 241555Z AUTO 07008KT 10SM BKN019 18/11 A3014 RMK AO2 BKN V OVC CIG 018 RWY31 SLP161 T01760109 $
KE11 - Andrews, Texas, USA
Distance from station: SE 78mi, 126km
Updated: Wed, 24-Apr-2024 10:15am MDT
Partly cloudy
Partly cloudy
 Wind from E
Wind: E 7 mph , 11 km/h
Temperature: 72°F , 22°C
Dew Point: 59°F , 15°C
Humidity: 65%
Barometer: 30.09 inHg , 1019 hPa
Clouds: Partly cloudy
Visibility: 10 miles , 16 km
Cloud details: Partly cloudy 1900 ft
2024/04/24 16:15 KE11 241615Z AUTO 09006KT 10SM SCT019 22/15 A3009 RMK AO2 T02150151
 
KCNM - Carlsbad, New Mexico, USA
Distance from station: SW 82mi, 132km
Updated: Wed, 24-Apr-2024 9:53am MDT
Clear
Clear
 Wind from NNW
Wind: NNW 21 mph , 33 km/h
Temperature: 72°F , 22°C
Dew Point: 48°F , 9°C
Humidity: 44%
Barometer: 30.08 inHg , 1018.6 hPa
Clouds: Clear
Visibility: 10 miles , 16 km
2024/04/24 15:53 KCNM 241553Z AUTO 33018KT 10SM CLR 22/09 A3008 RMK AO2 SLP134 T02170094
KCVN - Clovis Muni, New Mexico, USA
Distance from station: N 83mi, 133km
Updated: Wed, 24-Apr-2024 10:09am MDT
Overcast
Overcast
 Wind from ENE
Wind: ENE 6 mph , 9 km/h
Temperature: 63°F , 17°C
Dew Point: 54°F , 12°C
Humidity: 73%
Barometer: 30.16 inHg , 1021.3 hPa
Clouds: Overcast
Visibility: 10 miles , 16 km
Cloud details: Mostly cloudy 1500 ft
Overcast 2200 ft
2024/04/24 16:09 KCVN 241609Z AUTO 07005KT 10SM BKN015 OVC022 17/12 A3016 RMK AO2
 
KLBB - Lubbock, Texas, USA
Distance from station: ENE 92mi, 149km
Updated: Wed, 24-Apr-2024 10:12am MDT
Mist, Overcast
Mist, Overcast
 Wind from E
Wind: E 8 mph , 13 km/h
Temperature: 63°F , 17°C
Dew Point: 61°F , 16°C
Humidity: 94%
Barometer: 30.11 inHg , 1019.6 hPa
Summary: Mist
Clouds: Overcast
Visibility: 6 miles , 10 km
Cloud details: Partly cloudy 300 ft
Overcast 600 ft
2024/04/24 16:12 KLBB 241612Z 09007KT 6SM BR SCT003 OVC006 17/16 A3011 RMK AO2 DZE01 P0000 T01670156
KINK - Wink, Texas, USA
Distance from station: S 101mi, 163km
Updated: Wed, 24-Apr-2024 9:53am MDT
Clear
Clear
 Wind from WSW
Wind: WSW 5 mph , 7 km/h
Temperature: 73°F , 23°C
Dew Point: 59°F , 15°C
Humidity: 61%
Barometer: 30.03 inHg , 1016.9 hPa
Clouds: Clear
Visibility: 10 miles , 16 km
2024/04/24 15:53 KINK 241553Z AUTO 24004KT 10SM CLR 23/15 A3003 RMK AO2 SLP128 T02280150 $
 
KMAF - Midland, Texas, USA
Distance from station: SE 111mi, 179km
Updated: Wed, 24-Apr-2024 9:53am MDT
Few Clouds
Few Clouds
 Wind from varies
Wind: varies 6 mph , 9 km/h
Temperature: 73°F , 23°C
Dew Point: 61°F , 16°C
Humidity: 65%
Barometer: 30.06 inHg , 1017.9 hPa
Clouds: Few Clouds
Visibility: 10 miles , 16 km
Cloud details: Few Clouds 2400 ft
2024/04/24 15:53 KMAF 241553Z VRB05KT 10SM FEW024 23/16 A3006 RMK AO2 SLP138 T02280161
KSRR - Sierra B/Ruidoso, New Mexico, USA
Distance from station: W 127mi, 204km
Updated: Wed, 24-Apr-2024 10:15am MDT
Clear
Clear
 Wind from NNE
Wind: NNE 7 mph , 11 km/h
Temperature: 68°F , 20°C
Dew Point: 27°F , -3°C
Humidity: 21%
Barometer: 30.25 inHg , 1024.4 hPa
Clouds: Clear
Visibility: 10 miles , 16 km
2024/04/24 16:15 KSRR 241615Z AUTO 03006KT 10SM CLR 20/M03 A3025 RMK AO2
 
KGDP - Guadalupe Pass, Texas, USA
Distance from station: SW 130mi, 209km
Updated: Sun, 10-Dec-2023 5:51pm MST
NOT Current

 Wind from SW
Wind: SW 31 mph , 50 km/h
Temperature: 41°F , 5°C
Wind Chill: 30°F , -1°C
Dew Point: 9°F , -13°C
Humidity: 26%
Barometer: 30.20 inHg , 1022.7 hPa
Visibility: 10 miles , 16 km
2023/12/11 00:51 KGDP 110051Z AUTO 23027KT 10SM 05/M13 A3020 RMK AO2 PK WND 25038/0000 SLP229 T00501133 $